Time;durP1;ratioP1;P1;durP2;ratioP2;P2;SDS_P1;SDS_P2;PMS_P1;PMS_P2;Temp;Humidity;BMP_temperature;BMP_pressure;BME280_temperature;BME280_humidity;BME280_pressure;Samples;Min_cycle;Max_cycle;Signal;HPM_P1;HPM_P2
2023/12/17 00:02:02;;;;;;;41.20;22.00;;;;;;;-147.86;100.00;46143.74;104924;1269;64477;-56
2023/12/17 00:04:29;;;;;;;36.70;20.60;;;;;;;-147.86;100.00;46146.48;104771;1264;72637;-50
2023/12/17 00:06:56;;;;;;;39.50;21.00;;;;;;;-147.86;100.00;46146.87;104886;1269;61115;-53
2023/12/17 00:09:22;;;;;;;37.50;20.10;;;;;;;-147.86;100.00;46146.09;105223;1268;59996;-54
2023/12/17 00:11:49;;;;;;;34.40;19.00;;;;;;;-147.86;100.00;46144.52;105204;1269;72845;-50
2023/12/17 00:14:16;;;;;;;32.30;19.20;;;;;;;-147.86;100.00;46146.48;105227;1267;64634;-50
2023/12/17 00:16:43;;;;;;;35.70;19.70;;;;;;;-147.86;100.00;46146.48;105245;1267;72656;-53
2023/12/17 00:19:10;;;;;;;38.40;20.70;;;;;;;-147.86;100.00;46146.88;105252;1276;59628;-52
2023/12/17 00:21:37;;;;;;;36.80;20.50;;;;;;;-147.86;100.00;46148.44;105175;1264;60185;-54
2023/12/17 00:24:05;;;;;;;38.70;20.20;;;;;;;-147.86;100.00;46146.09;105186;1269;72878;-53
2023/12/17 00:26:32;;;;;;;38.60;20.70;;;;;;;-147.86;100.00;46147.65;105187;1269;63650;-55
2023/12/17 00:28:58;;;;;;;36.40;19.20;;;;;;;-147.86;100.00;46147.66;105151;1268;72718;-51
2023/12/17 00:31:25;;;;;;;39.50;19.30;;;;;;;-147.86;100.00;46146.87;105149;1268;61144;-49
2023/12/17 00:33:52;;;;;;;36.00;19.90;;;;;;;-147.86;100.00;46148.04;105201;1264;60173;-51
2023/12/17 00:36:19;;;;;;;32.30;18.10;;;;;;;-147.86;100.00;46150.40;105193;1264;72999;-53
2023/12/17 00:38:46;;;;;;;41.30;20.00;;;;;;;-147.86;100.00;46149.22;105191;1268;64685;-50
2023/12/17 00:41:13;;;;;;;32.30;18.90;;;;;;;-147.86;100.00;46148.83;105264;1260;72622;-54
2023/12/17 00:43:40;;;;;;;35.80;19.30;;;;;;;-147.86;100.00;46148.83;105245;1266;60998;-53
2023/12/17 00:46:06;;;;;;;33.90;18.10;;;;;;;-147.86;100.00;46148.04;105199;1260;60212;-53
2023/12/17 00:48:33;;;;;;;38.00;18.30;;;;;;;-147.86;100.00;46150.79;105250;1261;72933;-52
2023/12/17 00:51:01;;;;;;;35.50;18.40;;;;;;;-147.86;100.00;46149.61;105297;1274;64661;-49
2023/12/17 00:53:28;;;;;;;34.90;19.00;;;;;;;-147.86;100.00;46150.79;105210;1261;72738;-49
2023/12/17 00:55:55;;;;;;;35.10;18.70;;;;;;;-147.86;100.00;46149.61;105255;1266;59654;-48
2023/12/17 00:58:22;;;;;;;38.40;18.70;;;;;;;-147.86;100.00;46149.61;105201;1266;60226;-49
2023/12/17 01:00:49;;;;;;;37.80;18.90;;;;;;;-147.86;100.00;46149.23;105225;1262;72961;-55
2023/12/17 01:03:22;;;;;;;34.10;17.90;;;;;;;-147.86;100.00;46150.79;105278;1266;64657;-48
2023/12/17 01:05:49;;;;;;;39.20;18.50;;;;;;;-147.86;100.00;46150.40;105257;1261;70397;-52
2023/12/17 01:08:16;;;;;;;31.10;16.90;;;;;;;-147.86;100.00;46152.75;105242;1266;61064;-50
2023/12/17 01:10:43;;;;;;;36.60;18.00;;;;;;;-147.86;100.00;46151.57;105230;1264;60242;-47
2023/12/17 01:13:09;;;;;;;34.60;18.20;;;;;;;-147.86;100.00;46151.18;105739;1258;73138;-56
2023/12/17 01:15:37;;;;;;;35.10;18.20;;;;;;;-147.86;100.00;46153.14;105661;1260;63553;-50
2023/12/17 01:18:04;;;;;;;34.00;16.90;;;;;;;-147.86;100.00;46153.14;105654;1260;72560;-54
2023/12/17 01:20:31;;;;;;;39.10;19.40;;;;;;;-147.86;100.00;46153.14;105599;1260;60021;-47
2023/12/17 01:22:58;;;;;;;37.90;19.50;;;;;;;-147.86;100.00;46153.54;105644;1259;60288;-53
2023/12/17 01:25:25;;;;;;;39.60;17.80;;;;;;;-147.86;100.00;46152.36;105686;1260;72826;-56
2023/12/17 01:27:52;;;;;;;39.40;19.40;;;;;;;-147.86;100.00;46155.10;105644;1260;64586;-46
2023/12/17 01:30:18;;;;;;;35.90;18.30;;;;;;;-147.86;100.00;46152.75;105664;1259;72616;-50
2023/12/17 01:32:45;;;;;;;33.20;18.40;;;;;;;-147.86;100.00;46152.75;105579;1260;61102;-51
2023/12/17 01:35:13;;;;;;;40.70;19.00;;;;;;;-147.86;100.00;46151.57;105664;1256;60290;-53
2023/12/17 01:37:39;;;;;;;44.70;19.90;;;;;;;-147.86;100.00;46151.18;105703;1258;73046;-46
2023/12/17 01:40:08;;;;;;;36.50;18.10;;;;;;;-147.86;100.00;46152.75;105634;1261;64652;-44
2023/12/17 01:42:35;;;;;;;41.30;19.10;;;;;;;-147.86;100.00;46150.01;105595;1258;71366;-51
2023/12/17 01:45:03;;;;;;;38.90;18.90;;;;;;;-147.86;100.00;46148.44;105618;1260;60986;-47
2023/12/17 01:47:30;;;;;;;36.70;18.10;;;;;;;-147.86;100.00;46149.61;105627;1269;60002;-52
2023/12/17 01:49:57;;;;;;;34.70;17.50;;;;;;;-147.86;100.00;46145.30;105569;1263;72982;-49
2023/12/17 01:52:24;;;;;;;37.70;17.40;;;;;;;-147.86;100.00;46149.22;105518;1263;64681;-51
2023/12/17 01:54:51;;;;;;;37.60;17.60;;;;;;;-147.86;100.00;46147.26;105706;1257;72630;-50
2023/12/17 01:57:18;;;;;;;34.60;16.60;;;;;;;-147.86;100.00;46144.91;105855;1266;61152;-53
2023/12/17 01:59:46;;;;;;;33.10;17.00;;;;;;;-147.86;100.00;46142.17;105933;1257;60284;-51
2023/12/17 02:02:13;;;;;;;34.70;17.40;;;;;;;-147.86;100.00;46143.74;105862;1256;73100;-50
2023/12/17 02:04:40;;;;;;;30.80;15.90;;;;;;;-147.86;100.00;46142.95;105942;1257;64580;-46
2023/12/17 02:07:07;;;;;;;34.70;18.30;;;;;;;-147.86;100.00;46142.56;105879;1255;72474;-48
2023/12/17 02:09:34;;;;;;;29.10;15.70;;;;;;;-147.86;100.00;46140.21;105854;1256;61119;-54
2023/12/17 02:12:01;;;;;;;36.70;17.00;;;;;;;-147.86;100.00;46141.38;105922;1255;60358;-49
2023/12/17 02:14:28;;;;;;;32.90;16.40;;;;;;;-147.86;100.00;46140.21;105901;1254;73121;-56
2023/12/17 02:16:54;;;;;;;32.10;15.50;;;;;;;-147.86;100.00;46137.08;105875;1256;64761;-55
2023/12/17 02:19:21;;;;;;;31.60;14.90;;;;;;;-147.86;100.00;46138.64;105913;1256;72522;-46
2023/12/17 02:21:48;;;;;;;25.30;14.60;;;;;;;-147.86;100.00;46137.86;105882;1252;59697;-53
2023/12/17 02:24:15;;;;;;;25.60;13.90;;;;;;;-147.86;100.00;46136.30;105866;1257;60133;-53
2023/12/17 02:26:42;;;;;;;29.10;15.30;;;;;;;-147.86;100.00;46134.33;105932;1254;73066;-53
2023/12/17 02:29:09;;;;;;;29.30;14.30;;;;;;;-147.86;100.00;46136.29;105868;1266;64686;-53
2023/12/17 02:31:36;;;;;;;28.20;15.50;;;;;;;-147.86;100.00;46133.16;105894;1257;72402;-54
2023/12/17 02:34:03;;;;;;;27.30;15.20;;;;;;;-147.86;100.00;46133.95;105905;1257;61132;-55
2023/12/17 02:36:30;;;;;;;27.40;14.60;;;;;;;-147.86;100.00;46131.59;105948;1256;60344;-52
2023/12/17 02:38:57;;;;;;;23.30;13.40;;;;;;;-147.86;100.00;46131.98;105834;1252;72912;-48
2023/12/17 02:41:24;;;;;;;27.10;14.20;;;;;;;-147.86;100.00;46131.59;105878;1257;64639;-54
2023/12/17 02:43:51;;;;;;;25.30;13.80;;;;;;;-147.86;100.00;46130.02;105882;1257;72569;-49
2023/12/17 02:46:17;;;;;;;25.30;14.30;;;;;;;-147.86;100.00;46129.24;105893;1266;61124;-50
2023/12/17 02:48:45;;;;;;;24.60;14.40;;;;;;;-147.86;100.00;46126.10;105862;1257;60270;-49
2023/12/17 02:51:13;;;;;;;22.40;13.40;;;;;;;-147.86;100.00;46127.67;105827;1258;71617;-50
2023/12/17 02:53:40;;;;;;;25.20;14.80;;;;;;;-147.86;100.00;46127.28;105859;1257;64697;-48
2023/12/17 02:56:07;;;;;;;25.50;13.70;;;;;;;-147.86;100.00;46127.28;105829;1266;72630;-44
2023/12/17 02:58:34;;;;;;;24.30;14.10;;;;;;;-147.86;100.00;46127.28;105829;1266;61173;-51
2023/12/17 03:01:01;;;;;;;25.60;13.60;;;;;;;-147.86;100.00;46124.93;105893;1254;60289;-52
2023/12/17 03:03:28;;;;;;;27.70;15.20;;;;;;;-147.86;100.00;46122.57;105892;1257;72901;-49
2023/12/17 03:05:55;;;;;;;27.60;14.70;;;;;;;-147.86;100.00;46124.54;105903;1257;64753;-49
2023/12/17 03:08:21;;;;;;;29.80;14.10;;;;;;;-147.86;100.00;46124.93;105835;1257;72632;-54
2023/12/17 03:10:48;;;;;;;28.10;14.90;;;;;;;-147.86;100.00;46123.36;105859;1258;60242;-57
2023/12/17 03:13:15;;;;;;;25.50;14.10;;;;;;;-147.86;100.00;46122.57;105894;1258;60320;-54
2023/12/17 03:15:42;;;;;;;23.00;13.70;;;;;;;-147.86;100.00;46122.97;105879;1257;72851;-53
2023/12/17 03:18:08;;;;;;;24.90;14.10;;;;;;;-147.86;100.00;46122.97;105831;1257;64769;-50
2023/12/17 03:20:36;;;;;;;23.30;13.30;;;;;;;-147.86;100.00;46123.36;105887;1257;72618;-49
2023/12/17 03:23:02;;;;;;;27.20;13.50;;;;;;;-147.86;100.00;46119.83;105917;1257;61039;-51
2023/12/17 03:25:29;;;;;;;22.40;13.00;;;;;;;-147.86;100.00;46120.62;105796;1255;60526;-51
2023/12/17 03:27:56;;;;;;;21.30;12.60;;;;;;;-147.86;100.00;46119.05;105866;1257;74947;-49
2023/12/17 03:30:23;;;;;;;22.90;13.70;;;;;;;-147.86;100.00;46121.01;105854;1257;64574;-52
2023/12/17 03:32:50;;;;;;;24.90;13.40;;;;;;;-147.86;100.00;46121.01;105882;1257;71596;-46
2023/12/17 03:35:17;;;;;;;22.80;13.30;;;;;;;-147.86;100.00;46117.88;105857;1257;61020;-47
2023/12/17 03:37:45;;;;;;;24.10;13.70;;;;;;;-147.86;100.00;46116.30;105867;1253;61392;-51
2023/12/17 03:40:13;;;;;;;23.70;13.20;;;;;;;-147.86;100.00;46118.27;105825;1253;73839;-50
2023/12/17 03:42:40;;;;;;;19.20;13.10;;;;;;;-147.86;100.00;46118.27;105870;1257;64709;-54
2023/12/17 03:45:08;;;;;;;24.10;13.20;;;;;;;-147.86;100.00;46117.09;105875;1254;71625;-51
2023/12/17 03:47:37;;;;;;;26.30;13.70;;;;;;;-147.86;100.00;46115.13;105887;1258;60367;-49
2023/12/17 03:50:05;;;;;;;21.50;12.20;;;;;;;-147.86;100.00;46115.52;105875;1257;60430;-55
2023/12/17 03:52:32;;;;;;;25.20;12.20;;;;;;;-147.86;100.00;46114.74;105871;1257;73680;-52
2023/12/17 03:54:58;;;;;;;24.30;12.60;;;;;;;-147.86;100.00;46114.74;105855;1257;64527;-51
2023/12/17 03:57:25;;;;;;;21.50;11.40;;;;;;;-147.86;100.00;46114.74;105787;1257;72637;-52
2023/12/17 03:59:52;;;;;;;18.80;11.50;;;;;;;-147.86;100.00;46113.95;105857;1257;61061;-52
2023/12/17 04:02:19;;;;;;;20.60;11.50;;;;;;;-147.86;100.00;46116.31;105881;1254;60463;-45
2023/12/17 04:04:46;;;;;;;17.50;11.40;;;;;;;-147.86;100.00;46114.74;105884;1257;72705;-56
2023/12/17 04:07:13;;;;;;;18.50;11.20;;;;;;;-147.86;100.00;46114.35;105857;1257;63703;-51
2023/12/17 04:09:39;;;;;;;19.80;11.70;;;;;;;-147.86;100.00;46113.56;105905;1255;72661;-50
2023/12/17 04:12:06;;;;;;;21.90;12.00;;;;;;;-147.86;100.00;46113.56;105836;1256;60432;-55
2023/12/17 04:14:33;;;;;;;20.30;12.10;;;;;;;-147.86;100.00;46115.13;105871;1254;60536;-49
2023/12/17 04:17:00;;;;;;;19.10;11.20;;;;;;;-147.86;100.00;46115.13;105831;1257;73830;-52
2023/12/17 04:19:27;;;;;;;17.40;11.60;;;;;;;-147.86;100.00;46115.91;105891;1257;64766;-48
2023/12/17 04:21:54;;;;;;;17.80;11.50;;;;;;;-147.86;100.00;46113.55;105839;1254;72505;-54
2023/12/17 04:24:21;;;;;;;18.20;10.10;;;;;;;-147.86;100.00;46113.17;105858;1258;61008;-54
2023/12/17 04:26:48;;;;;;;15.80;10.30;;;;;;;-147.86;100.00;46114.74;105849;1254;60680;-50
2023/12/17 04:29:15;;;;;;;19.00;10.30;;;;;;;-147.86;100.00;46113.55;105911;1254;73848;-52
2023/12/17 04:31:42;;;;;;;17.80;11.30;;;;;;;-147.86;100.00;46113.95;105929;1257;64538;-51
2023/12/17 04:34:10;;;;;;;19.40;10.60;;;;;;;-147.86;100.00;46110.82;105887;1254;72528;-50
2023/12/17 04:36:38;;;;;;;17.50;10.70;;;;;;;-147.86;100.00;46111.99;105899;1257;60533;-53
2023/12/17 04:39:05;;;;;;;16.20;10.40;;;;;;;-147.86;100.00;46112.38;106015;1253;60654;-48
2023/12/17 04:41:33;;;;;;;19.90;12.00;;;;;;;-147.86;100.00;46112.78;105902;1257;73671;-50
2023/12/17 04:44:00;;;;;;;15.40;10.40;;;;;;;-147.86;100.00;46115.91;105866;1257;64581;-52
2023/12/17 04:46:28;;;;;;;16.50;10.50;;;;;;;-147.86;100.00;46113.96;105896;1254;72456;-53
2023/12/17 04:48:55;;;;;;;17.60;10.70;;;;;;;-147.86;100.00;46114.74;105896;1257;61119;-51
2023/12/17 04:51:23;;;;;;;19.80;10.60;;;;;;;-147.86;100.00;46112.78;105901;1254;60559;-48
2023/12/17 04:53:50;;;;;;;15.80;11.10;;;;;;;-147.86;100.00;46116.30;105844;1257;73849;-56
2023/12/17 04:56:17;;;;;;;19.20;11.10;;;;;;;-147.86;100.00;46113.95;105911;1257;64669;-53
2023/12/17 04:58:45;;;;;;;17.70;11.00;;;;;;;-147.86;100.00;46113.56;105702;1258;72642;-56
2023/12/17 05:01:12;;;;;;;19.20;11.00;;;;;;;-147.86;100.00;46114.34;105880;1254;60880;-48
2023/12/17 05:03:39;;;;;;;16.40;10.00;;;;;;;-147.86;100.00;46115.13;105847;1253;60451;-48
2023/12/17 05:06:07;;;;;;;15.40;9.60;;;;;;;-147.86;100.00;46115.91;105904;1254;73856;-51
2023/12/17 05:08:35;;;;;;;15.70;10.70;;;;;;;-147.86;100.00;46115.13;105884;1253;64569;-50
2023/12/17 05:11:01;;;;;;;22.20;11.50;;;;;;;-147.86;100.00;46112.78;105872;1254;72717;-53
2023/12/17 05:13:28;;;;;;;18.70;12.00;;;;;;;-147.86;100.00;46113.56;105849;1257;61115;-58
2023/12/17 05:15:55;;;;;;;19.60;11.40;;;;;;;-147.86;100.00;46116.70;105908;1257;60439;-50
2023/12/17 05:18:22;;;;;;;19.60;12.50;;;;;;;-147.86;100.00;46114.34;105859;1257;73850;-56
2023/12/17 05:20:49;;;;;;;28.60;11.60;;;;;;;-147.86;100.00;46115.13;105859;1257;64639;-55
2023/12/17 05:23:16;;;;;;;20.10;11.10;;;;;;;-147.86;100.00;46116.30;105921;1254;72630;-54
2023/12/17 05:25:43;;;;;;;20.30;10.90;;;;;;;-147.86;100.00;46114.35;105840;1257;61094;-55
2023/12/17 05:28:11;;;;;;;17.50;10.80;;;;;;;-147.86;100.00;46117.87;105921;1254;60446;-54
2023/12/17 05:30:38;;;;;;;19.00;10.60;;;;;;;-147.86;100.00;46117.09;105884;1254;73823;-56
2023/12/17 05:33:06;;;;;;;17.20;10.40;;;;;;;-147.86;100.00;46115.13;105891;1257;64552;-55
2023/12/17 05:35:33;;;;;;;17.10;10.20;;;;;;;-147.86;100.00;46118.66;105898;1254;72741;-55
2023/12/17 05:38:00;;;;;;;18.60;10.50;;;;;;;-147.86;100.00;46117.88;106026;1257;61091;-57
2023/12/17 05:40:27;;;;;;;21.20;11.20;;;;;;;-147.86;100.00;46119.44;105896;1253;60418;-55
2023/12/17 05:42:54;;;;;;;19.00;10.40;;;;;;;-147.86;100.00;46119.45;105901;1256;73573;-57
2023/12/17 05:45:21;;;;;;;15.60;10.40;;;;;;;-147.86;100.00;46119.84;105887;1257;64733;-52
2023/12/17 05:47:48;;;;;;;20.60;10.30;;;;;;;-147.86;100.00;46118.27;105867;1254;72640;-55
2023/12/17 05:50:15;;;;;;;16.50;10.40;;;;;;;-147.86;100.00;46120.23;105863;1257;60434;-50
2023/12/17 05:52:43;;;;;;;19.30;10.80;;;;;;;-147.86;100.00;46120.62;105940;1255;60431;-51
2023/12/17 05:55:09;;;;;;;24.50;11.20;;;;;;;-147.86;100.00;46120.23;105918;1254;73776;-54
2023/12/17 05:57:36;;;;;;;16.90;10.50;;;;;;;-147.86;100.00;46121.01;105834;1257;64755;-52
2023/12/17 06:00:04;;;;;;;19.30;10.90;;;;;;;-147.86;100.00;46119.45;105921;1257;72585;-55
2023/12/17 06:02:32;;;;;;;21.50;11.20;;;;;;;-147.86;100.00;46117.48;105883;1255;60523;-59
2023/12/17 06:04:59;;;;;;;20.00;10.80;;;;;;;-147.86;100.00;46115.91;105913;1253;60443;-57
2023/12/17 06:07:26;;;;;;;16.50;9.30;;;;;;;-147.86;100.00;46121.01;105881;1254;73805;-52
2023/12/17 06:09:53;;;;;;;20.40;11.30;;;;;;;-147.86;100.00;46118.27;105916;1257;64488;-56
2023/12/17 06:12:19;;;;;;;18.80;11.00;;;;;;;-147.86;100.00;46119.83;105879;1254;72647;-58
2023/12/17 06:14:46;;;;;;;26.50;11.20;;;;;;;-147.86;100.00;46121.01;105830;1257;61145;-56
2023/12/17 06:17:13;;;;;;;18.00;11.40;;;;;;;-147.86;100.00;46122.57;105922;1253;60435;-61
2023/12/17 06:19:41;;;;;;;21.50;11.20;;;;;;;-147.86;100.00;46122.18;105892;1253;73851;-48
2023/12/17 06:22:11;;;;;;;16.60;11.10;;;;;;;-147.86;100.00;46122.18;105843;1257;64764;-56
2023/12/17 06:24:38;;;;;;;20.30;11.00;;;;;;;-147.86;100.00;46122.18;105841;1254;71717;-49
2023/12/17 06:27:05;;;;;;;22.50;11.80;;;;;;;-147.86;100.00;46121.79;105964;1257;60533;-49
2023/12/17 06:29:32;;;;;;;19.20;10.80;;;;;;;-147.86;100.00;46119.44;105884;1254;60405;-51
2023/12/17 06:32:01;;;;;;;21.90;11.60;;;;;;;-147.86;100.00;46124.14;105880;1254;73735;-49
2023/12/17 06:34:30;;;;;;;20.20;11.60;;;;;;;-147.86;100.00;46124.93;105861;1257;63221;-52
2023/12/17 06:36:57;;;;;;;17.90;9.90;;;;;;;-147.86;100.00;46123.36;105881;1254;72673;-51
2023/12/17 06:39:25;;;;;;;20.20;10.60;;;;;;;-147.86;100.00;46123.36;105891;1257;60507;-49
2023/12/17 06:41:51;;;;;;;21.00;11.70;;;;;;;-147.86;100.00;46125.32;105881;1254;60440;-47
2023/12/17 06:44:18;;;;;;;22.30;10.90;;;;;;;-147.86;100.00;46124.14;105876;1256;73808;-48
2023/12/17 06:46:45;;;;;;;20.60;11.40;;;;;;;-147.86;100.00;46126.49;105848;1256;64702;-48
2023/12/17 06:49:12;;;;;;;19.60;11.90;;;;;;;-147.86;100.00;46128.85;105891;1254;72680;-52
2023/12/17 06:51:40;;;;;;;19.70;11.50;;;;;;;-147.86;100.00;46126.10;105629;1258;61153;-52
2023/12/17 06:54:07;;;;;;;25.20;11.50;;;;;;;-147.86;100.00;46127.28;105770;1253;60488;-51
2023/12/17 06:56:35;;;;;;;20.90;10.50;;;;;;;-147.86;100.00;46128.84;105850;1257;73873;-51
2023/12/17 06:59:02;;;;;;;20.70;12.20;;;;;;;-147.86;100.00;46130.02;105608;1254;63329;-49
2023/12/17 07:01:29;;;;;;;23.10;11.60;;;;;;;-147.86;100.00;46130.80;105593;1254;72627;-53
2023/12/17 07:03:56;;;;;;;19.40;10.60;;;;;;;-147.86;100.00;46133.16;105675;1257;60530;-54
2023/12/17 07:06:23;;;;;;;20.10;11.50;;;;;;;-147.86;100.00;46133.16;105855;1254;60651;-58
2023/12/17 07:08:50;;;;;;;19.10;11.20;;;;;;;-147.86;100.00;46134.73;105852;1254;73901;-48
2023/12/17 07:11:18;;;;;;;21.80;11.60;;;;;;;-147.86;100.00;46134.73;105885;1256;64468;-53
2023/12/17 07:13:44;;;;;;;19.40;12.30;;;;;;;-147.86;100.00;46136.29;105820;1254;72635;-56
2023/12/17 07:16:25;;;;;;;20.60;11.80;;;;;;;-147.86;100.00;46140.21;105896;1254;61988;-53
2023/12/17 07:18:52;;;;;;;26.00;12.70;;;;;;;-147.86;100.00;46141.78;105865;1254;60402;-50
2023/12/17 07:21:19;;;;;;;22.90;12.50;;;;;;;-147.86;100.00;46140.21;105914;1257;73692;-52
2023/12/17 07:23:46;;;;;;;21.30;11.80;;;;;;;-147.86;100.00;46144.91;105831;1257;64715;-51
2023/12/17 07:26:14;;;;;;;22.40;11.50;;;;;;;-147.86;100.00;46144.52;105885;1257;71591;-52
2023/12/17 07:28:41;;;;;;;21.80;11.60;;;;;;;-147.86;100.00;46143.74;105874;1257;60447;-51
2023/12/17 07:31:08;;;;;;;23.10;11.80;;;;;;;-147.86;100.00;46148.83;105973;1254;60421;-53
2023/12/17 07:33:35;;;;;;;22.80;12.50;;;;;;;-147.86;100.00;46154.32;105881;1254;73787;-53
2023/12/17 07:36:02;;;;;;;23.70;12.60;;;;;;;-147.86;100.00;46151.96;105915;1256;64793;-52
2023/12/17 07:38:29;;;;;;;23.60;12.90;;;;;;;-147.86;100.00;46157.05;105909;1253;72801;-50
2023/12/17 07:40:56;;;;;;;26.80;12.60;;;;;;;-147.86;100.00;46159.41;105885;1256;61117;-51
2023/12/17 07:43:23;;;;;;;24.80;11.80;;;;;;;-147.86;100.00;46163.72;105896;1253;60447;-49
2023/12/17 07:45:49;;;;;;;24.40;12.10;;;;;;;-147.86;100.00;46166.46;105832;1256;73867;-48
2023/12/17 07:48:16;;;;;;;20.60;11.90;;;;;;;-147.86;100.00;46169.60;106001;1257;64909;-52
2023/12/17 07:50:43;;;;;;;20.00;12.00;;;;;;;-147.86;100.00;46177.83;105826;1254;71232;-52
2023/12/17 07:53:10;;;;;;;23.20;12.90;;;;;;;-147.86;100.00;46179.40;105895;1257;60934;-53
2023/12/17 07:55:37;;;;;;;23.80;11.70;;;;;;;-147.86;100.00;46186.45;105898;1255;60530;-46
2023/12/17 07:58:04;;;;;;;17.60;11.40;;;;;;;-147.86;100.00;46191.93;105869;1254;73697;-46
2023/12/17 08:00:31;;;;;;;19.90;11.70;;;;;;;-147.86;100.00;46197.82;105903;1257;65078;-52
2023/12/17 08:02:58;;;;;;;22.00;12.10;;;;;;;-147.86;100.00;46207.61;105900;1254;72342;-52
2023/12/17 08:05:25;;;;;;;20.30;11.80;;;;;;;-147.86;100.00;46214.66;105896;1253;61309;-55
2023/12/17 08:07:52;;;;;;;21.00;11.70;;;;;;;-147.86;100.00;46220.15;105897;1253;60540;-53
2023/12/17 08:10:19;;;;;;;22.70;12.50;;;;;;;-147.86;100.00;46226.42;105917;1256;73698;-47
2023/12/17 08:12:46;;;;;;;21.90;12.10;;;;;;;-147.86;100.00;46233.87;105833;1254;64724;-51
2023/12/17 08:15:14;;;;;;;19.20;11.60;;;;;;;-147.86;100.00;46235.04;105898;1253;71287;-53
2023/12/17 08:17:41;;;;;;;24.10;12.30;;;;;;;-147.86;100.00;46241.31;105903;1257;61115;-47
2023/12/17 08:20:09;;;;;;;20.10;11.90;;;;;;;-147.86;100.00;46246.80;105910;1254;60456;-52
2023/12/17 08:22:36;;;;;;;20.80;12.50;;;;;;;-147.86;100.00;46246.80;105942;1254;73821;-50
2023/12/17 08:25:04;;;;;;;22.40;11.90;;;;;;;-147.86;100.00;46252.29;105848;1256;64570;-51
2023/12/17 08:27:31;;;;;;;20.80;11.80;;;;;;;-147.86;100.00;46256.99;105869;1254;73373;-53
2023/12/17 08:29:59;;;;;;;23.40;13.00;;;;;;;-147.86;100.00;46259.73;105879;1256;60553;-48
2023/12/17 08:32:31;;;;;;;24.10;12.80;;;;;;;-147.86;100.00;46261.30;105868;1254;60421;-54
2023/12/17 08:34:59;;;;;;;21.90;11.80;;;;;;;-147.86;100.00;46261.69;105863;1253;73863;-50
2023/12/17 08:37:26;;;;;;;23.60;13.00;;;;;;;-147.86;100.00;46262.08;105900;1257;64714;-52
2023/12/17 08:39:53;;;;;;;26.00;13.10;;;;;;;-147.86;100.00;46264.82;105844;1254;72766;-51
2023/12/17 08:42:20;;;;;;;23.20;12.30;;;;;;;-147.86;100.00;46264.43;105955;1257;61209;-55
2023/12/17 08:44:48;;;;;;;24.30;12.70;;;;;;;-147.86;100.00;46263.26;105843;1256;60946;-48
2023/12/17 08:47:16;;;;;;;23.50;12.50;;;;;;;-147.86;100.00;46263.26;105937;1253;73822;-52
2023/12/17 08:49:42;;;;;;;25.00;12.30;;;;;;;-147.86;100.00;46260.51;105930;1256;65217;-56
2023/12/17 08:52:09;;;;;;;24.10;12.60;;;;;;;-147.86;100.00;46260.12;105853;1254;72739;-53
2023/12/17 08:54:36;;;;;;;24.50;12.90;;;;;;;-147.86;100.00;46257.38;105887;1253;60454;-53
2023/12/17 08:57:03;;;;;;;23.90;12.90;;;;;;;-147.86;100.00;46258.16;105835;1253;60526;-48
2023/12/17 08:59:30;;;;;;;20.10;11.60;;;;;;;-147.86;100.00;46256.59;105894;1254;72587;-55
2023/12/17 09:01:57;;;;;;;21.80;11.90;;;;;;;-147.86;100.00;46255.81;105890;1254;64716;-51
2023/12/17 09:04:24;;;;;;;21.70;12.20;;;;;;;-147.86;100.00;46254.64;105882;1254;72698;-56
2023/12/17 09:06:52;;;;;;;23.30;13.00;;;;;;;-147.86;100.00;46254.25;105826;1253;60469;-50
2023/12/17 09:09:19;;;;;;;22.60;12.80;;;;;;;-147.86;100.00;46252.68;105902;1254;60412;-48
2023/12/17 09:11:45;;;;;;;23.10;13.00;;;;;;;-147.86;100.00;46253.07;105897;1256;73703;-51
2023/12/17 09:14:12;;;;;;;21.90;12.90;;;;;;;-147.86;100.00;46252.28;105834;1257;64695;-50
2023/12/17 09:16:39;;;;;;;21.40;12.80;;;;;;;-147.86;100.00;46252.28;105830;1254;71643;-52
2023/12/17 09:19:06;;;;;;;22.70;12.40;;;;;;;-147.86;100.00;46252.68;105846;1254;61025;-54
2023/12/17 09:21:33;;;;;;;20.60;11.50;;;;;;;-147.86;100.00;46255.42;105881;1253;60992;-54
2023/12/17 09:24:01;;;;;;;22.90;14.00;;;;;;;-147.86;100.00;46255.02;105963;1254;73669;-49
2023/12/17 09:26:28;;;;;;;24.30;13.40;;;;;;;-147.86;100.00;46255.81;105893;1256;64637;-54
2023/12/17 09:28:55;;;;;;;26.10;13.60;;;;;;;-147.86;100.00;46256.99;105909;1254;72352;-48
2023/12/17 09:31:22;;;;;;;27.00;13.20;;;;;;;-147.86;100.00;46256.99;105837;1257;61315;-55
2023/12/17 09:33:49;;;;;;;22.80;13.30;;;;;;;-147.86;100.00;46259.73;105885;1253;60430;-54
2023/12/17 09:36:16;;;;;;;26.80;13.80;;;;;;;-147.86;100.00;46258.95;105809;1255;72705;-52
2023/12/17 09:38:43;;;;;;;25.90;12.50;;;;;;;-147.86;100.00;46261.30;105976;1256;64721;-48
2023/12/17 09:41:10;;;;;;;27.00;13.20;;;;;;;-147.86;100.00;46258.55;105850;1254;71163;-52
2023/12/17 09:43:37;;;;;;;23.90;14.00;;;;;;;-147.86;100.00;46257.77;105847;1256;60523;-57
2023/12/17 09:46:04;;;;;;;27.50;13.10;;;;;;;-147.86;100.00;46256.99;105899;1254;60431;-53
2023/12/17 09:48:31;;;;;;;26.10;13.80;;;;;;;-147.86;100.00;46255.42;105706;1258;73979;-51
2023/12/17 09:50:58;;;;;;;24.80;13.20;;;;;;;-147.86;100.00;46254.24;105715;1256;64756;-56
2023/12/17 09:53:25;;;;;;;23.10;13.30;;;;;;;-147.86;100.00;46249.15;105875;1254;72666;-51
2023/12/17 09:55:52;;;;;;;22.50;12.80;;;;;;;-147.86;100.00;46253.85;105707;1258;61129;-54
2023/12/17 09:58:19;;;;;;;22.90;12.70;;;;;;;-147.86;100.00;46251.50;105919;1253;61317;-55
2023/12/17 10:00:47;;;;;;;26.90;14.00;;;;;;;-147.86;100.00;46255.02;105882;1254;73840;-51
2023/12/17 10:03:14;;;;;;;29.50;15.80;;;;;;;-147.86;100.00;46255.02;105939;1256;64729;-52
2023/12/17 10:05:41;;;;;;;26.60;15.10;;;;;;;-147.86;100.00;46255.02;105913;1256;71589;-55
2023/12/17 10:08:08;;;;;;;25.20;13.90;;;;;;;-147.86;100.00;46256.60;105881;1256;61120;-49
2023/12/17 10:10:35;;;;;;;23.60;14.00;;;;;;;-147.86;100.00;46255.81;105831;1254;60412;-50
2023/12/17 10:13:03;;;;;;;24.60;14.10;;;;;;;-147.86;100.00;46258.55;105953;1254;73816;-54
2023/12/17 10:15:35;;;;;;;28.50;14.90;;;;;;;-147.86;100.00;46257.38;105886;1254;64664;-51
2023/12/17 10:18:03;;;;;;;27.50;14.20;;;;;;;-147.86;100.00;46263.65;105865;1256;72483;-55
2023/12/17 10:20:30;;;;;;;29.20;13.10;;;;;;;-147.86;100.00;46263.65;105905;1253;60914;-54
2023/12/17 10:22:58;;;;;;;28.10;14.70;;;;;;;-147.86;100.00;46268.74;105915;1254;60526;-50
2023/12/17 10:25:25;;;;;;;23.30;13.00;;;;;;;-147.86;100.00;46269.92;105886;1254;73802;-52
2023/12/17 10:27:58;;;;;;;24.70;13.50;;;;;;;-147.86;100.00;46271.88;105876;1254;64739;-53
2023/12/17 10:30:27;;;;;;;24.00;14.10;;;;;;;-147.86;100.00;46269.92;105908;1254;72503;-52
2023/12/17 10:32:56;;;;;;;28.40;14.80;;;;;;;-147.86;100.00;46270.31;105901;1254;63099;-57
2023/12/17 10:35:24;;;;;;;24.30;13.80;;;;;;;-147.86;100.00;46268.35;105879;1256;60402;-54
2023/12/17 10:37:57;;;;;;;39.40;16.60;;;;;;;-147.86;100.00;46267.18;105893;1253;73677;-52
2023/12/17 10:40:25;;;;;;;28.40;14.10;;;;;;;-147.86;100.00;46265.61;105935;1256;64678;-49
2023/12/17 10:42:53;;;;;;;23.90;13.50;;;;;;;-147.86;100.00;46262.09;105895;1254;72497;-55
2023/12/17 10:45:20;;;;;;;25.60;13.80;;;;;;;-147.86;100.00;46260.91;105877;1256;61177;-56
2023/12/17 10:47:53;;;;;;;21.40;13.60;;;;;;;-147.86;100.00;46259.73;105949;1257;60944;-53